Time;durP1;ratioP1;P1;durP2;ratioP2;P2;SDS_P1;SDS_P2;PMS_P1;PMS_P2;Temp;Humidity;BMP_temperature;BMP_pressure;BME280_temperature;BME280_humidity;BME280_pressure;Samples;Min_cycle;Max_cycle;Signal;HPM_P1;HPM_P2
2023/04/03 00:02:20;;;;;;;;;;;;;;;1.82;76.77;101504.91;5050610;28;19967;-85
2023/04/03 00:04:46;;;;;;;;;;;;;;;1.76;77.89;101498.19;5059395;28;20007;-85
2023/04/03 00:07:12;;;;;;;;;;;;;;;1.66;78.16;101505.59;5043388;28;20462;-84
2023/04/03 00:09:37;;;;;;;;;;;;;;;1.63;78.89;101510.13;5066001;28;19970;-85
2023/04/03 00:12:02;;;;;;;;;;;;;;;1.59;76.58;101512.00;5067500;28;19955;-86
2023/04/03 00:14:27;;;;;;;;;;;;;;;;;;5068109;28;19978;-85
2023/04/03 00:16:52;;;;;;;;;;;;;;;;;;5069561;28;19925;-85
2023/04/03 00:19:17;;;;;;;;;;;;;;;;;;5047843;28;19923;-84
2023/04/03 00:21:43;;;;;;;;;;;;;;;;;;5068261;28;19968;-84
2023/04/03 00:24:08;;;;;;;;;;;;;;;;;;5068822;28;19920;-85
2023/04/03 00:26:33;;;;;;;;;;;;;;;;;;5038921;28;19928;-85
2023/04/03 00:28:58;;;;;;;;;;;;;;;;;;5060927;28;19963;-85
2023/04/03 00:31:23;;;;;;;;;;;;;;;;;;5048677;28;20015;-85
2023/04/03 00:33:48;;;;;;;;;;;;;;;;;;5064231;28;19920;-84
2023/04/03 00:36:13;;;;;;;;;;;;;;;;;;5042580;28;19924;-84
2023/04/03 00:38:38;;;;;;;;;;;;;;;;;;5054883;28;19911;-83
2023/04/03 00:41:03;;;;;;;;;;;;;;;;;;5073121;28;19968;-83
2023/04/03 00:43:29;;;;;;;;;;;;;;;;;;5096282;28;19927;-84
2023/04/03 00:45:54;;;;;;;;;;;;;;;;;;5086927;28;19926;-82
2023/04/03 00:48:19;;;;;;;;;;;;;;;;;;5081648;28;19921;-83
2023/04/03 00:50:44;;;;;;;;;;;;;;;;;;5059819;28;20411;-83
2023/04/03 00:53:10;;;;;;;;;;;;;;;;;;5062590;28;19916;-83
2023/04/03 00:55:35;;;;;;;;;;;;;;;;;;5052465;28;20062;-84
2023/04/03 00:58:00;;;;;;;;;;;;;;;;;;5069543;28;19978;-83
2023/04/03 01:00:25;;;;;;;;;;;;;;;;;;5065749;28;20067;-83
2023/04/03 01:02:51;;;;;;;;;;;;;;;;;;5066083;28;19920;-83
2023/04/03 01:05:16;;;;;;;;;;;;;;;;;;5061306;28;19928;-84
2023/04/03 01:07:41;;;;;;;;;;;;;;;;;;5045129;28;19927;-84
2023/04/03 01:10:06;;;;;;;;;;;;;;;;;;5058179;28;19921;-83
2023/04/03 01:12:31;;;;;;;;;;;;;;;;;;5059771;28;19967;-83
2023/04/03 01:14:56;;;;;;;;;;;;;;;;;;5067479;28;19939;-83
2023/04/03 01:17:22;;;;;;;;;;;;;;;;;;5052029;28;19996;-84
2023/04/03 01:19:47;;;;;;;;;;;;;;;;;;5053366;28;19916;-84
2023/04/03 01:22:12;;;;;;;;;;;;;;;;;;5070655;28;19931;-83
2023/04/03 01:24:41;;;;;;;;;;;;;;;;;;5072892;28;19931;-84
2023/04/03 01:27:06;;;;;;;;;;;;;;;;;;5054068;28;20009;-83
2023/04/03 01:29:31;;;;;;;;;;;;;;;;;;5049158;28;20334;-83
2023/04/03 01:31:56;;;;;;;;;;;;;;;;;;5052134;28;19921;-84
2023/04/03 01:34:21;;;;;;;;;;;;;;;;;;5026524;28;20011;-83
2023/04/03 01:36:46;;;;;;;;;;;;;;;;;;5052280;28;20011;-83
2023/04/03 01:39:11;;;;;;;;;;;;;;;;;;5055414;28;19961;-83
2023/04/03 01:41:36;;;;;;;;;;;;;;;;;;5025179;28;20290;-83
2023/04/03 01:44:01;;;;;;;;;;;;;;;;;;5057544;28;19936;-83
2023/04/03 01:46:27;;;;;;;;;;;;;;;;;;5061607;28;20336;-83
2023/04/03 01:48:52;;;;;;;;;;;;;;;;;;5035066;28;19920;-83
2023/04/03 01:51:17;;;;;;;;;;;;;;;;;;5045710;28;19924;-82
2023/04/03 01:53:42;;;;;;;;;;;;;;;;;;5053615;28;19920;-82
2023/04/03 01:56:07;;;;;;;;;;;;;;;;;;5051912;28;20017;-83
2023/04/03 01:58:32;;;;;;;;;;;;;;;;;;5070512;28;20397;-83
2023/04/03 02:00:57;;;;;;;;;;;;;;;;;;5070420;28;19920;-83
2023/04/03 02:03:22;;;;;;;;;;;;;;;;;;5071233;28;19931;-83
2023/04/03 02:05:47;;;;;;;;;;;;;;;;;;5071849;28;20348;-83
2023/04/03 02:08:13;;;;;;;;;;;;;;;;;;5070843;28;20011;-83
2023/04/03 02:10:38;;;;;;;;;;;;;;;;;;5054776;28;19917;-83
2023/04/03 02:13:03;;;;;;;;;;;;;;;;;;5069164;28;19928;-83
2023/04/03 02:15:28;;;;;;;;;;;;;;;;;;5044519;28;19963;-83
2023/04/03 02:17:53;;;;;;;;;;;;;;;;;;5067281;28;20305;-83
2023/04/03 02:20:18;;;;;;;;;;;;;;;;;;5055558;28;20384;-83
2023/04/03 02:22:44;;;;;;;;;;;;;;;;;;5036545;28;19948;-83
2023/04/03 02:25:10;;;;;;;;;;;;;;;;;;5055281;28;20017;-82
2023/04/03 02:27:35;;;;;;;;;;;;;;;;;;5064520;28;19926;-83
2023/04/03 02:30:00;;;;;;;;;;;;;;;;;;5070222;28;19928;-83
2023/04/03 02:32:25;;;;;;;;;;;;;;;;;;5072185;28;19984;-84
2023/04/03 02:34:50;;;;;;;;;;;;;;;;;;5046053;28;19921;-83
2023/04/03 02:37:15;;;;;;;;;;;;;;;;;;5032622;28;19990;-83
2023/04/03 02:39:40;;;;;;;;;;;;;;;;;;5034682;28;19947;-83
2023/04/03 02:42:05;;;;;;;;;;;;;;;;;;5045087;28;19960;-82
2023/04/03 02:44:31;;;;;;;;;;;;;;;;;;5058665;28;20026;-83
2023/04/03 02:46:56;;;;;;;;;;;;;;;;;;5055717;28;19924;-83
2023/04/03 02:49:21;;;;;;;;;;;;;;;;;;5074039;28;19995;-85
2023/04/03 02:51:47;;;;;;;;;;;;;;;;;;5064684;28;19929;-83
2023/04/03 02:54:12;;;;;;;;;;;;;;;;;;5038685;28;19921;-84
2023/04/03 02:56:37;;;;;;;;;;;;;;;;;;5046403;28;19921;-83
2023/04/03 02:59:02;;;;;;;;;;;;;;;;;;5066033;28;20487;-84
2023/04/03 03:01:31;;;;;;;;;;;;;;;;;;5079041;28;19924;-84
2023/04/03 03:03:56;;;;;;;;;;;;;;;;;;5043197;28;19936;-84
2023/04/03 03:06:21;;;;;;;;;;;;;;;;;;5054729;28;19925;-83
2023/04/03 03:08:46;;;;;;;;;;;;;;;;;;5055515;28;19928;-84
2023/04/03 03:11:11;;;;;;;;;;;;;;;;;;5043558;28;19936;-84
2023/04/03 03:13:36;;;;;;;;;;;;;;;;;;5056733;28;19924;-84
2023/04/03 03:16:02;;;;;;;;;;;;;;;;;;5056279;28;20297;-83
2023/04/03 03:18:27;;;;;;;;;;;;;;;;;;5056610;28;20320;-85
2023/04/03 03:20:52;;;;;;;;;;;;;;;;;;5051115;28;19925;-83
2023/04/03 03:23:17;;;;;;;;;;;;;;;;;;5039042;28;19980;-84
2023/04/03 03:25:42;;;;;;;;;;;;;;;;;;5043320;28;19931;-84
2023/04/03 03:28:08;;;;;;;;;;;;;;;;;;5039575;28;19927;-84
2023/04/03 03:30:33;;;;;;;;;;;;;;;;;;5055893;28;20381;-85
2023/04/03 03:32:58;;;;;;;;;;;;;;;;;;5056188;28;20031;-85
2023/04/03 03:35:23;;;;;;;;;;;;;;;;;;5075765;28;19921;-84
2023/04/03 03:37:48;;;;;;;;;;;;;;;;;;5058080;28;19924;-83
2023/04/03 03:40:14;;;;;;;;;;;;;;;;;;5058886;28;19931;-85
2023/04/03 03:42:39;;;;;;;;;;;;;;;;;;5071175;28;19955;-84
2023/04/03 03:45:04;;;;;;;;;;;;;;;;;;5032218;28;19925;-85
2023/04/03 03:47:29;;;;;;;;;;;;;;;;;;5052817;28;19921;-84
2023/04/03 03:49:55;;;;;;;;;;;;;;;;;;5051816;28;19926;-84
2023/04/03 03:52:20;;;;;;;;;;;;;;;;;;5053770;28;20278;-84
2023/04/03 03:54:45;;;;;;;;;;;;;;;;;;5058315;28;19956;-84
2023/04/03 03:57:10;;;;;;;;;;;;;;;;;;5048767;28;19932;-83
2023/04/03 03:59:35;;;;;;;;;;;;;;;;;;5046166;28;20011;-84
2023/04/03 04:02:01;;;;;;;;;;;;;;;;;;5028169;28;19927;-83
2023/04/03 04:04:26;;;;;;;;;;;;;;;;;;5031393;28;19925;-83
2023/04/03 04:06:51;;;;;;;;;;;;;;;;;;5038480;28;19927;-84
2023/04/03 04:09:16;;;;;;;;;;;;;;;;;;5064756;28;19923;-84
2023/04/03 04:11:41;;;;;;;;;;;;;;;;;;5054189;28;19971;-85
2023/04/03 04:14:07;;;;;;;;;;;;;;;;;;5053791;28;19921;-85
2023/04/03 04:16:32;;;;;;;;;;;;;;;;;;5055527;28;20334;-84
2023/04/03 04:18:57;;;;;;;;;;;;;;;;;;5053986;28;19928;-83
2023/04/03 04:21:22;;;;;;;;;;;;;;;;;;5055599;28;19924;-84
2023/04/03 04:23:47;;;;;;;;;;;;;;;;;;5054231;28;19927;-85
2023/04/03 04:26:12;;;;;;;;;;;;;;;;;;5051898;28;20006;-84
2023/04/03 04:28:38;;;;;;;;;;;;;;;;;;5049308;28;19920;-85
2023/04/03 04:31:03;;;;;;;;;;;;;;;;;;5039643;28;19925;-83
2023/04/03 04:33:28;;;;;;;;;;;;;;;;;;5042711;28;19927;-84
2023/04/03 04:35:53;;;;;;;;;;;;;;;;;;5048100;28;19920;-83
2023/04/03 04:38:18;;;;;;;;;;;;;;;;;;5051937;28;19928;-85
2023/04/03 04:40:43;;;;;;;;;;;;;;;;;;5046902;28;20538;-83
2023/04/03 04:43:08;;;;;;;;;;;;;;;;;;5034054;28;19982;-85
2023/04/03 04:45:34;;;;;;;;;;;;;;;;;;5049630;28;19968;-84
2023/04/03 04:47:59;;;;;;;;;;;;;;;;;;5036834;28;19970;-86
2023/04/03 04:50:24;;;;;;;;;;;;;;;;;;5038366;28;20017;-85
2023/04/03 04:52:49;;;;;;;;;;;;;;;;;;5048659;28;19924;-83
2023/04/03 04:55:15;;;;;;;;;;;;;;;;;;5015794;28;19926;-83
2023/04/03 04:57:40;;;;;;;;;;;;;;;;;;5051873;28;19921;-84
2023/04/03 05:00:05;;;;;;;;;;;;;;;;;;5042737;28;21313;-83
2023/04/03 05:02:30;;;;;;;;;;;;;;;;;;5046537;28;19978;-85
2023/04/03 05:04:55;;;;;;;;;;;;;;;;;;5059485;28;19925;-84
2023/04/03 05:07:20;;;;;;;;;;;;;;;;;;5046179;28;19921;-84
2023/04/03 05:09:46;;;;;;;;;;;;;;;;;;5044670;28;19931;-84
2023/04/03 05:12:11;;;;;;;;;;;;;;;;;;5051986;28;19916;-84
2023/04/03 05:14:36;;;;;;;;;;;;;;;;;;5053513;28;19921;-84
2023/04/03 05:17:01;;;;;;;;;;;;;;;;;;5053586;28;19916;-84
2023/04/03 05:19:26;;;;;;;;;;;;;;;;;;5054125;28;19928;-85
2023/04/03 05:21:51;;;;;;;;;;;;;;;;;;5055166;28;20429;-85
2023/04/03 05:24:16;;;;;;;;;;;;;;;;;;5047463;28;19921;-84
2023/04/03 05:26:42;;;;;;;;;;;;;;;;;;5048668;28;20348;-85
2023/04/03 05:29:07;;;;;;;;;;;;;;;;;;5045565;28;20378;-83
2023/04/03 05:31:32;;;;;;;;;;;;;;;;;;5038716;28;19932;-83
2023/04/03 05:33:57;;;;;;;;;;;;;;;;;;5053704;28;19916;-84
2023/04/03 05:36:22;;;;;;;;;;;;;;;;;;5047513;28;20447;-85
2023/04/03 05:38:47;;;;;;;;;;;;;;;;;;5050559;28;20519;-84
2023/04/03 05:41:12;;;;;;;;;;;;;;;;;;5045069;28;20408;-84
2023/04/03 05:43:38;;;;;;;;;;;;;;;;;;5043104;28;19949;-82
2023/04/03 05:46:04;;;;;;;;;;;;;;;;;;5044745;28;20058;-86
2023/04/03 05:48:29;;;;;;;;;;;;;;;;;;5026598;28;19948;-83
2023/04/03 05:50:55;;;;;;;;;;;;;;;;;;5045472;28;20398;-85
2023/04/03 05:53:20;;;;;;;;;;;;;;;;;;5049545;28;19916;-86
2023/04/03 05:55:45;;;;;;;;;;;;;;;;;;5062769;28;19917;-83
2023/04/03 05:58:10;;;;;;;;;;;;;;;;;;5050181;28;19939;-84
2023/04/03 06:00:36;;;;;;;;;;;;;;;;;;5036523;28;20297;-84
2023/04/03 06:03:01;;;;;;;;;;;;;;;;;;5072100;28;19917;-85
2023/04/03 06:05:26;;;;;;;;;;;;;;;;;;5043408;28;19947;-83
2023/04/03 06:07:51;;;;;;;;;;;;;;;;;;5050063;28;19924;-83
2023/04/03 06:10:17;;;;;;;;;;;;;;;;;;5037693;28;19920;-84
2023/04/03 06:12:42;;;;;;;;;;;;;;;;;;5054485;28;19924;-84
2023/04/03 06:15:08;;;;;;;;;;;;;;;;;;5055127;28;19916;-85
2023/04/03 06:17:33;;;;;;;;;;;;;;;;;;5053003;28;20282;-84
2023/04/03 06:19:58;;;;;;;;;;;;;;;;;;5058444;28;19925;-85
2023/04/03 06:22:25;;;;;;;;;;;;;;;;;;5048788;28;19916;-85
2023/04/03 06:24:50;;;;;;;;;;;;;;;;;;5044454;28;19924;-84
2023/04/03 06:27:16;;;;;;;;;;;;;;;;;;5053644;28;19921;-86
2023/04/03 06:29:41;;;;;;;;;;;;;;;;;;5054043;28;19921;-86
2023/04/03 06:32:06;;;;;;;;;;;;;;;;;;5068146;28;19931;-86
2023/04/03 06:34:32;;;;;;;;;;;;;;;;;;5056403;28;19974;-84
2023/04/03 06:36:57;;;;;;;;;;;;;;;;;;5056302;28;19916;-85
2023/04/03 06:39:25;;;;;;;;;;;;;;;;;;5073506;28;19928;-85
2023/04/03 06:41:50;;;;;;;;;;;;;;;;;;5052030;28;19956;-85
2023/04/03 06:44:15;;;;;;;;;;;;;;;;;;5073219;28;20017;-85
2023/04/03 06:46:41;;;;;;;;;;;;;;;;;;5070489;28;19920;-86
2023/04/03 06:49:09;;;;;;;;;;;;;;;;;;5056667;28;19930;-85
2023/04/03 06:51:35;;;;;;;;;;;;;;;;;;5075319;28;19917;-85
2023/04/03 06:54:00;;;;;;;;;;;;;;;;;;5056701;28;19991;-86
2023/04/03 06:56:26;;;;;;;;;;;;;;;;;;5065531;28;20083;-85
2023/04/03 06:58:51;;;;;;;;;;;;;;;;;;5054871;28;20381;-85
2023/04/03 07:01:17;;;;;;;;;;;;;;;;;;5072841;28;19921;-85
2023/04/03 07:03:42;;;;;;;;;;;;;;;;;;5054880;28;19920;-85
2023/04/03 07:06:07;;;;;;;;;;;;;;;;;;5054413;28;19923;-85
2023/04/03 07:08:33;;;;;;;;;;;;;;;;;;5055233;28;20018;-84
2023/04/03 07:10:58;;;;;;;;;;;;;;;;;;5072872;28;19920;-85
2023/04/03 07:13:23;;;;;;;;;;;;;;;;;;5050095;28;19928;-85
2023/04/03 07:15:48;;;;;;;;;;;;;;;;;;5053952;28;19916;-85
2023/04/03 07:18:13;;;;;;;;;;;;;;;;;;5071365;28;19916;-85
2023/04/03 07:20:39;;;;;;;;;;;;;;;;;;5054816;28;19920;-85
2023/04/03 07:23:04;;;;;;;;;;;;;;;;;;5056691;28;20321;-84
2023/04/03 07:25:29;;;;;;;;;;;;;;;;;;5055022;28;19986;-85
2023/04/03 07:27:54;;;;;;;;;;;;;;;;;;5072780;28;20339;-85
2023/04/03 07:30:20;;;;;;;;;;;;;;;;;;5054027;28;19998;-85
2023/04/03 07:32:45;;;;;;;;;;;;;;;;;;5072730;28;19931;-85
2023/04/03 07:35:10;;;;;;;;;;;;;;;;;;5055350;28;20386;-86
2023/04/03 07:37:36;;;;;;;;;;;;;;;;;;5054685;28;19917;-86
2023/04/03 07:40:03;;;;;;;;;;;;;;;;;;5055107;28;19923;-85
2023/04/03 07:42:28;;;;;;;;;;;;;;;;;;5070629;28;19920;-85
2023/04/03 07:44:53;;;;;;;;;;;;;;;;;;5070276;28;20003;-86
2023/04/03 07:47:20;;;;;;;;;;;;;;;;;;5061072;28;19966;-84
2023/04/03 07:49:45;;;;;;;;;;;;;;;9.11;nan;101655.03;5058846;28;20019;-86
2023/04/03 07:52:10;;;;;;;;;;;;;;;;;;5047439;28;19952;-85
2023/04/03 07:54:35;;;;;;;;;;;;;;;;;;5074024;28;19948;-85
2023/04/03 07:57:01;;;;;;;;;;;;;;;;;;5071895;28;19961;-85
2023/04/03 07:59:26;;;;;;;;;;;;;;;;;;5054996;28;19924;-86
2023/04/03 08:01:51;;;;;;;;;;;;;;;;;;5065827;28;19927;-84
2023/04/03 08:04:16;;;;;;;;;;;;;;;;;;5051896;28;20397;-86
2023/04/03 08:06:41;;;;;;;;;;;;;;;;;;5071842;28;19927;-86
2023/04/03 08:09:06;;;;;;;;;;;;;;;;;;5051342;28;19917;-86
2023/04/03 08:11:31;;;;;;;;;;;;;;;;;;5060840;28;19971;-86
2023/04/03 08:13:57;;;;;;;;;;;;;;;;;;5073956;28;20003;-86
2023/04/03 08:16:22;;;;;;;;;;;;;;;;;;5072313;28;19974;-86
2023/04/03 08:18:47;;;;;;;;;;;;;;;;;;5072586;28;19943;-87
2023/04/03 08:21:12;;;;;;;;;;;;;;;;;;5053214;28;20432;-86
2023/04/03 08:23:37;;;;;;;;;;;;;;;;;;5053741;28;19938;-85
2023/04/03 08:26:02;;;;;;;;;;;;;;;;;;5062958;28;19973;-85
2023/04/03 08:28:27;;;;;;;;;;;;;;;;;;5067427;28;19924;-85
2023/04/03 08:30:52;;;;;;;;;;;;;;;;;;5059780;28;19967;-86
2023/04/03 08:33:18;;;;;;;;;;;;;;;;;;5066897;28;20013;-86
2023/04/03 08:35:43;;;;;;;;;;;;;;;;;;5053883;28;20421;-85
2023/04/03 08:38:08;;;;;;;;;;;;;;;;;;5071170;28;19921;-86
2023/04/03 08:40:33;;;;;;;;;;;;;;;;;;5053659;28;20131;-85
2023/04/03 08:42:58;;;;;;;;;;;;;;;;;;5042072;28;19928;-85
2023/04/03 08:45:23;;;;;;;;;;;;;;;;;;5060479;28;20439;-86
2023/04/03 08:47:48;;;;;;;;;;;;;;;;;;5051487;28;19924;-85
2023/04/03 08:50:13;;;;;;;;;;;;;;;;;;5034714;28;19928;-86
2023/04/03 08:52:38;;;;;;;;;;;;;;;;;;5053158;28;19936;-86
2023/04/03 08:55:04;;;;;;;;;;;;;;;;;;5043165;28;19954;-86
2023/04/03 08:57:29;;;;;;;;;;;;;;;;;;5051887;28;19924;-84
2023/04/03 08:59:54;;;;;;;;;;;;;;;;;;5062957;28;19924;-84
2023/04/03 09:02:20;;;;;;;;;;;;;;;;;;5072082;28;19947;-84
2023/04/03 09:04:45;;;;;;;;;;;;;;;;;;5071820;28;19925;-85
2023/04/03 09:07:10;;;;;;;;;;;;;;;;;;5054600;28;19924;-86
2023/04/03 09:09:36;;;;;;;;;;;;;;;;;;5055012;28;19920;-86
2023/04/03 09:12:01;;;;;;;;;;;;;;;;;;5072641;28;19924;-85
2023/04/03 09:14:26;;;;;;;;;;;;;;;;;;5071471;28;19920;-87
2023/04/03 09:16:52;;;;;;;;;;;;;;;;;;5072978;28;19975;-85
2023/04/03 09:19:17;;;;;;;;;;;;;;;;;;5066935;28;20360;-86
2023/04/03 09:21:42;;;;;;;;;;;;;;;;;;5067247;28;19921;-85
2023/04/03 09:24:07;;;;;;;;;;;;;;;;;;5053182;28;19929;-87
2023/04/03 09:26:32;;;;;;;;;;;;;;;;;;5057950;28;20373;-87
2023/04/03 09:28:57;;;;;;;;;;;;;;;;;;5054715;28;20008;-86
2023/04/03 09:31:23;;;;;;;;;;;;;;;;;;5058462;28;20436;-85
2023/04/03 09:33:48;;;;;;;;;;;;;;;;;;5055944;28;19940;-86
2023/04/03 09:36:13;;;;;;;;;;;;;;;;;;5058770;28;19960;-85
2023/04/03 09:38:38;;;;;;;;;;;;;;;;;;5057720;28;19921;-86
2023/04/03 09:41:03;;;;;;;;;;;;;;;;;;5058689;28;19929;-86
2023/04/03 09:43:28;;;;;;;;;;;;;;;;;;5068279;28;19920;-86
2023/04/03 09:45:53;;;;;;;;;;;;;;;;;;5058047;28;19920;-86
2023/04/03 09:48:19;;;;;;;;;;;;;;;;;;5071906;28;19976;-87
2023/04/03 09:50:44;;;;;;;;;;;;;;;;;;5057284;28;19943;-85
2023/04/03 09:53:09;;;;;;;;;;;;;;;;;;5078146;28;19925;-83
2023/04/03 09:55:34;;;;;;;;;;;;;;;;;;5065815;28;19931;-82
2023/04/03 09:57:59;;;;;;;;;;;;;;;;;;5087871;28;19932;-84
2023/04/03 10:00:25;;;;;;;;;;;;;;;;;;5072625;28;20355;-84
2023/04/03 10:02:50;;;;;;;;;;;;;;;;;;5056036;28;20419;-85
2023/04/03 10:05:16;;;;;;;;;;;;;;;;;;5061713;28;20432;-84
2023/04/03 10:07:41;;;;;;;;;;;;;;;;;;5057644;28;19924;-85
2023/04/03 10:10:06;;;;;;;;;;;;;;;;;;5073769;28;19920;-84
2023/04/03 10:12:31;;;;;;;;;;;;;;;;;;5058099;28;19999;-84
2023/04/03 10:14:57;;;;;;;;;;;;;;;;;;5057498;28;19954;-86
2023/04/03 10:17:22;;;;;;;;;;;;;;;;;;5047337;28;19928;-84
2023/04/03 10:19:48;;;;;;;;;;;;;;;;;;5045210;28;19977;-85
2023/04/03 10:22:14;;;;;;;;;;;;;;;;;;5033256;28;20120;-85
2023/04/03 10:24:39;;;;;;;;;;;;;;;;;;5037301;28;20411;-83
2023/04/03 10:27:05;;;;;;;;;;;;;;;;;;5038798;28;20413;-85
2023/04/03 10:29:30;;;;;;;;;;;;;;;;;;5035041;28;19925;-84
2023/04/03 10:31:55;;;;;;;;;;;;;;;;;;5032317;28;20396;-85
2023/04/03 10:34:20;;;;;;;;;;;;;;;;;;5052308;28;19928;-86
2023/04/03 10:36:46;;;;;;;;;;;;;;;;;;5042776;28;19927;-86
2023/04/03 10:39:11;;;;;;;;;;;;;;;;;;5072129;28;19920;-85
2023/04/03 10:41:36;;;;;;;;;;;;;;;;;;5049952;28;19978;-85
2023/04/03 10:44:01;;;;;;;;;;;;;;;;;;5035772;28;19996;-85
2023/04/03 10:46:27;;;;;;;;;;;;;;;;;;5039987;28;19920;-84
2023/04/03 10:48:52;;;;;;;;;;;;;;;;;;5042106;28;19925;-83
2023/04/03 10:51:17;;;;;;;;;;;;;;;;;;5032442;28;19925;-85
2023/04/03 10:53:42;;;;;;;;;;;;;;;;;;5036480;28;19936;-84
2023/04/03 10:56:07;;;;;;;;;;;;;;;;;;5040754;28;19940;-84
2023/04/03 10:58:33;;;;;;;;;;;;;;;;;;5053577;28;19929;-82
2023/04/03 11:00:58;;;;;;;;;;;;;;;;;;5058294;28;20023;-85
2023/04/03 11:03:23;;;;;;;;;;;;;;;;;;5041253;28;19967;-83
2023/04/03 11:05:49;;;;;;;;;;;;;;;;;;5062298;28;19977;-83
2023/04/03 11:08:14;;;;;;;;;;;;;;;;;;5049295;28;19927;-85
2023/04/03 11:10:39;;;;;;;;;;;;;;;;;;5033463;28;19921;-84
2023/04/03 11:13:04;;;;;;;;;;;;;;;;;;5039340;28;19933;-85
2023/04/03 11:15:29;;;;;;;;;;;;;;;;;;5068211;28;19996;-83
2023/04/03 11:17:54;;;;;;;;;;;;;;;;;;5052254;28;19916;-85
2023/04/03 11:20:20;;;;;;;;;;;;;;;;;;5050731;28;20361;-84
2023/04/03 11:22:46;;;;;;;;;;;;;;;;;;5068346;28;19920;-85
2023/04/03 11:25:11;;;;;;;;;;;;;;;;;;5043387;28;20409;-84
2023/04/03 11:27:36;;;;;;;;;;;;;;;;;;5063039;28;19916;-84
2023/04/03 11:30:01;;;;;;;;;;;;;;;;;;5046093;28;19935;-84
2023/04/03 11:32:27;;;;;;;;;;;;;;;;;;5051458;28;19931;-84
2023/04/03 11:34:53;;;;;;;;;;;;;;;;;;5056153;28;19924;-86
2023/04/03 11:37:18;;;;;;;;;;;;;;;;;;5068191;28;20381;-83
2023/04/03 11:39:43;;;;;;;;;;;;;;;;;;5045248;28;20372;-84
2023/04/03 11:42:08;;;;;;;;;;;;;;;;;;5049749;28;20317;-83
2023/04/03 11:44:33;;;;;;;;;;;;;;;;;;5050012;28;19935;-86
2023/04/03 11:46:59;;;;;;;;;;;;;;;;;;5051362;28;20306;-84
2023/04/03 11:49:24;;;;;;;;;;;;;;;;;;5052467;28;19966;-84
2023/04/03 11:51:49;;;;;;;;;;;;;;;;;;5067364;28;19920;-85
2023/04/03 11:54:17;;;;;;;;;;;;;;;;;;5048634;28;19997;-84
2023/04/03 11:56:42;;;;;;;;;;;;;;;;;;5050124;28;20393;-84
2023/04/03 11:59:08;;;;;;;;;;;;;;;;;;5048695;28;19928;-85
2023/04/03 12:01:33;;;;;;;;;;;;;;;;;;5052380;28;19920;-84
2023/04/03 12:03:58;;;;;;;;;;;;;;;;;;5052103;28;19998;-85
2023/04/03 12:06:23;;;;;;;;;;;;;;;;;;5066638;28;20276;-84
2023/04/03 12:08:48;;;;;;;;;;;;;;;;;;5056862;28;19958;-87
2023/04/03 12:11:16;;;;;;;;;;;;;;;;;;5051656;28;19920;-85
2023/04/03 12:13:41;;;;;;;;;;;;;;;;;;5064649;28;19921;-86
2023/04/03 12:16:08;;;;;;;;;;;;;;;;;;5040100;28;20964;-85
2023/04/03 12:18:33;;;;;;;;;;;;;;;;;;5036173;28;19923;-85
2023/04/03 12:20:58;;;;;;;;;;;;;;;;;;5036393;28;20428;-85
2023/04/03 12:23:24;;;;;;;;;;;;;;;;;;5034534;28;19948;-84
2023/04/03 12:25:49;;;;;;;;;;;;;;;;;;5050800;28;19995;-84
2023/04/03 12:28:14;;;;;;;;;;;;;;;;;;5054551;28;19936;-85
2023/04/03 12:30:39;;;;;;;;;;;;;;;;;;5030377;28;19962;-84
2023/04/03 12:33:05;;;;;;;;;;;;;;;;;;5029461;28;19969;-84
2023/04/03 12:35:31;;;;;;;;;;;;;;;;;;5030577;28;19925;-84
2023/04/03 12:37:58;;;;;;;;;;;;;;;;;;5047577;28;19920;-84
2023/04/03 12:40:24;;;;;;;;;;;;;;;;;;5049310;28;19925;-84
2023/04/03 12:42:49;;;;;;;;;;;;;;;;;;5030567;28;20023;-85
2023/04/03 12:45:15;;;;;;;;;;;;;;;;;;5049544;28;19936;-86
2023/04/03 12:47:40;;;;;;;;;;;;;;;;;;5026258;28;19921;-86
2023/04/03 12:50:05;;;;;;;;;;;;;;;;;;5034734;28;20354;-85
2023/04/03 12:52:30;;;;;;;;;;;;;;;;;;5031721;28;20558;-86
2023/04/03 12:54:56;;;;;;;;;;;;;;;;;;5049060;28;20019;-84
2023/04/03 12:57:21;;;;;;;;;;;;;;;;;;5028697;28;20447;-86
2023/04/03 12:59:46;;;;;;;;;;;;;;;;;;5026932;28;19929;-86
2023/04/03 13:02:12;;;;;;;;;;;;;;;;;;5039149;28;19925;-85
2023/04/03 13:04:37;;;;;;;;;;;;;;;;;;5050094;28;19952;-85
2023/04/03 13:07:02;;;;;;;;;;;;;;;;;;5053027;28;20010;-85
2023/04/03 13:09:27;;;;;;;;;;;;;;;;;;5036197;28;20458;-85
2023/04/03 13:11:52;;;;;;;;;;;;;;;;;;5049576;28;19929;-85
2023/04/03 13:14:17;;;;;;;;;;;;;;;;;;5027481;28;19932;-83
2023/04/03 13:16:44;;;;;;;;;;;;;;;;;;5029640;28;20374;-84
2023/04/03 13:19:09;;;;;;;;;;;;;;;;;;5051801;28;20302;-84
2023/04/03 13:21:34;;;;;;;;;;;;;;;;;;5043681;28;19986;-84
2023/04/03 13:23:59;;;;;;;;;;;;;;;;;;5047140;28;20016;-84
2023/04/03 13:26:25;;;;;;;;;;;;;;;;;;5033772;28;19995;-83
2023/04/03 13:28:51;;;;;;;;;;;;;;;;;;5052883;28;19921;-84
2023/04/03 13:31:16;;;;;;;;;;;;;;;;;;5045624;28;19982;-85
2023/04/03 13:33:41;;;;;;;;;;;;;;;;;;5055207;28;20036;-84
2023/04/03 13:36:07;;;;;;;;;;;;;;;;;;5051187;28;19928;-84
2023/04/03 13:38:33;;;;;;;;;;;;;;;;;;5049160;28;19928;-86
2023/04/03 13:41:00;;;;;;;;;;;;;;;;;;5051173;28;19978;-85
2023/04/03 13:43:25;;;;;;;;;;;;;;;;;;5053661;28;19921;-86
2023/04/03 13:45:50;;;;;;;;;;;;;;;;;;5030112;28;19924;-85
2023/04/03 13:48:15;;;;;;;;;;;;;;;;;;5030630;28;19925;-84
2023/04/03 13:50:40;;;;;;;;;;;;;;;;;;5034006;28;19924;-83
2023/04/03 13:53:06;;;;;;;;;;;;;;;;;;5050233;28;19949;-86
2023/04/03 13:55:31;;;;;;;;;;;;;;;;;;5060036;28;19932;-85
2023/04/03 13:57:56;;;;;;;;;;;;;;;;;;5069531;28;19925;-84
2023/04/03 14:00:21;;;;;;;;;;;;;;;;;;5040996;28;19967;-85
2023/04/03 14:02:46;;;;;;;;;;;;;;;;;;5053462;28;19924;-86
2023/04/03 14:05:12;;;;;;;;;;;;;;;;;;5049532;28;19929;-85
2023/04/03 14:07:37;;;;;;;;;;;;;;;;;;5031281;28;19977;-85
2023/04/03 14:10:02;;;;;;;;;;;;;;;;;;5051940;28;19979;-86
2023/04/03 14:12:27;;;;;;;;;;;;;;;;;;5029427;28;19921;-84
2023/04/03 14:14:53;;;;;;;;;;;;;;;;;;5048586;28;19921;-84
2023/04/03 14:17:18;;;;;;;;;;;;;;;;;;5029916;28;19924;-83
2023/04/03 14:19:43;;;;;;;;;;;;;;;;;;5032117;28;20034;-82
2023/04/03 14:22:08;;;;;;;;;;;;;;;;;;5050772;28;19988;-84
2023/04/03 14:24:34;;;;;;;;;;;;;;;;;;5050102;28;19933;-85
2023/04/03 14:27:00;;;;;;;;;;;;;;;;;;5030908;28;20413;-84
2023/04/03 14:29:25;;;;;;;;;;;;;;;;;;5050823;28;19924;-83
2023/04/03 14:31:50;;;;;;;;;;;;;;;;;;5047903;28;19996;-85
2023/04/03 14:34:15;;;;;;;;;;;;;;;;;;5033456;28;19968;-83
2023/04/03 14:36:41;;;;;;;;;;;;;;;;;;5027030;28;19928;-84
2023/04/03 14:39:06;;;;;;;;;;;;;;;;;;5047447;28;19920;-84
2023/04/03 14:41:31;;;;;;;;;;;;;;;;;;5054520;28;19928;-82
2023/04/03 14:43:56;;;;;;;;;;;;;;;;;;5035320;28;20337;-82
2023/04/03 14:46:21;;;;;;;;;;;;;;;;;;5050062;28;19947;-83
2023/04/03 14:48:46;;;;;;;;;;;;;;;;;;5031209;28;19978;-86
2023/04/03 14:51:11;;;;;;;;;;;;;;;;;;5033585;28;19924;-83
2023/04/03 14:53:37;;;;;;;;;;;;;;;;;;5048258;28;20021;-83
2023/04/03 14:56:02;;;;;;;;;;;;;;;;;;5043490;28;19921;-82
2023/04/03 14:58:27;;;;;;;;;;;;;;;;;;5048791;28;20405;-82
2023/04/03 15:00:52;;;;;;;;;;;;;;;;;;5050330;28;19947;-83
2023/04/03 15:03:17;;;;;;;;;;;;;;;;;;5052684;28;19924;-83
2023/04/03 15:05:42;;;;;;;;;;;;;;;;;;5053303;28;19932;-83
2023/04/03 15:08:07;;;;;;;;;;;;;;;;;;5050663;28;19931;-82
2023/04/03 15:10:32;;;;;;;;;;;;;;;;;;5032031;28;19921;-82
2023/04/03 15:12:57;;;;;;;;;;;;;;;;;;5049767;28;19921;-82
2023/04/03 15:15:23;;;;;;;;;;;;;;;;;;5050515;28;19924;-82
2023/04/03 15:17:48;;;;;;;;;;;;;;;;;;5050455;28;19963;-82
2023/04/03 15:20:13;;;;;;;;;;;;;;;;;;5034736;28;19931;-82
2023/04/03 15:22:38;;;;;;;;;;;;;;;;;;5026809;28;19925;-82
2023/04/03 15:25:03;;;;;;;;;;;;;;;;;;5031642;28;19940;-82
2023/04/03 15:27:28;;;;;;;;;;;;;;;;;;5049303;28;19921;-82
2023/04/03 15:29:54;;;;;;;;;;;;;;;;;;5052773;28;20274;-83
2023/04/03 15:32:19;;;;;;;;;;;;;;;;;;5033261;28;19921;-82
2023/04/03 15:34:44;;;;;;;;;;;;;;;;;;5032143;28;19917;-83
2023/04/03 15:37:09;;;;;;;;;;;;;;;;;;5031376;28;19929;-83
2023/04/03 15:39:34;;;;;;;;;;;;;;;;;;5031824;28;19928;-83
2023/04/03 15:42:05;;;;;;;;;;;;;;;;;;5052586;28;19920;-83
2023/04/03 15:44:30;;;;;;;;;;;;;;;;;;5048339;28;19952;-83
2023/04/03 15:46:55;;;;;;;;;;;;;;;;;;5044489;28;20000;-83
2023/04/03 15:49:20;;;;;;;;;;;;;;;;;;5022761;28;19952;-81
2023/04/03 15:51:45;;;;;;;;;;;;;;;;;;5036530;28;20379;-81
2023/04/03 15:54:11;;;;;;;;;;;;;;;;;;5028416;28;19989;-82
2023/04/03 15:56:36;;;;;;;;;;;;;;;;;;5013816;28;19925;-81
2023/04/03 15:59:01;;;;;;;;;;;;;;;;;;5023771;28;19944;-82
2023/04/03 16:01:26;;;;;;;;;;;;;;;;;;5043139;28;20094;-80
2023/04/03 16:03:51;;;;;;;;;;;;;;;;;;5045656;28;19932;-81
2023/04/03 16:06:17;;;;;;;;;;;;;;;;;;5060413;28;19920;-81
2023/04/03 16:08:42;;;;;;;;;;;;;;;;;;5049717;28;20020;-83
2023/04/03 16:11:07;;;;;;;;;;;;;;;;;;5054290;28;19922;-82
2023/04/03 16:13:33;;;;;;;;;;;;;;;;;;5037097;28;19925;-83
2023/04/03 16:15:58;;;;;;;;;;;;;;;;;;5042544;28;19952;-82
2023/04/03 16:18:23;;;;;;;;;;;;;;;;;;5044471;28;19925;-80
2023/04/03 16:20:48;;;;;;;;;;;;;;;;;;5035800;28;19939;-82
2023/04/03 16:23:13;;;;;;;;;;;;;;;;;;5041847;28;19921;-82
2023/04/03 16:25:38;;;;;;;;;;;;;;;;;;5042977;28;19940;-83
2023/04/03 16:28:04;;;;;;;;;;;;;;;;;;5030059;28;19959;-81